sensor_id;sensor_type;location;lat;lon;timestamp;P1;durP1;ratioP1;P2;durP2;ratioP2
65035;SDS011;51603;49.300;8.880;2023-06-10T00:01:21;8.40;;;7.70;;
65035;SDS011;51603;49.300;8.880;2023-06-10T00:03:47;8.60;;;7.80;;
65035;SDS011;51603;49.300;8.880;2023-06-10T00:06:13;9.40;;;8.60;;
65035;SDS011;51603;49.300;8.880;2023-06-10T00:08:38;7.77;;;7.13;;
65035;SDS011;51603;49.300;8.880;2023-06-10T00:11:06;8.17;;;7.40;;
65035;SDS011;51603;49.300;8.880;2023-06-10T00:13:31;8.93;;;7.57;;
65035;SDS011;51603;49.300;8.880;2023-06-10T00:15:57;8.00;;;7.30;;
65035;SDS011;51603;49.300;8.880;2023-06-10T00:18:23;8.63;;;7.87;;
65035;SDS011;51603;49.300;8.880;2023-06-10T00:20:48;9.17;;;8.27;;
65035;SDS011;51603;49.300;8.880;2023-06-10T00:23:17;8.20;;;7.60;;
65035;SDS011;51603;49.300;8.880;2023-06-10T00:25:43;8.77;;;8.07;;
65035;SDS011;51603;49.300;8.880;2023-06-10T00:28:09;9.83;;;8.57;;
65035;SDS011;51603;49.300;8.880;2023-06-10T00:30:35;7.97;;;7.33;;
65035;SDS011;51603;49.300;8.880;2023-06-10T00:33:00;8.90;;;8.10;;
65035;SDS011;51603;49.300;8.880;2023-06-10T00:35:26;8.83;;;7.43;;
65035;SDS011;51603;49.300;8.880;2023-06-10T00:37:51;7.60;;;6.93;;
65035;SDS011;51603;49.300;8.880;2023-06-10T00:40:17;8.40;;;7.70;;
65035;SDS011;51603;49.300;8.880;2023-06-10T00:42:42;10.30;;;6.43;;
65035;SDS011;51603;49.300;8.880;2023-06-10T00:45:08;7.93;;;7.23;;
65035;SDS011;51603;49.300;8.880;2023-06-10T00:47:34;8.87;;;8.07;;
65035;SDS011;51603;49.300;8.880;2023-06-10T00:50:00;8.77;;;7.87;;
65035;SDS011;51603;49.300;8.880;2023-06-10T00:52:27;7.83;;;7.13;;
65035;SDS011;51603;49.300;8.880;2023-06-10T00:54:57;7.97;;;7.37;;
65035;SDS011;51603;49.300;8.880;2023-06-10T00:57:24;8.37;;;7.67;;
65035;SDS011;51603;49.300;8.880;2023-06-10T00:59:50;8.10;;;7.40;;
65035;SDS011;51603;49.300;8.880;2023-06-10T01:02:16;7.00;;;6.40;;
65035;SDS011;51603;49.300;8.880;2023-06-10T01:04:42;8.13;;;7.53;;
65035;SDS011;51603;49.300;8.880;2023-06-10T01:10:05;8.30;;;7.60;;
65035;SDS011;51603;49.300;8.880;2023-06-10T01:15:14;7.27;;;6.67;;
65035;SDS011;51603;49.300;8.880;2023-06-10T01:17:54;8.30;;;7.60;;
65035;SDS011;51603;49.300;8.880;2023-06-10T01:20:22;7.50;;;6.90;;
65035;SDS011;51603;49.300;8.880;2023-06-10T01:22:49;8.00;;;7.30;;
65035;SDS011;51603;49.300;8.880;2023-06-10T01:25:16;8.00;;;7.33;;
65035;SDS011;51603;49.300;8.880;2023-06-10T01:27:42;8.23;;;7.50;;
65035;SDS011;51603;49.300;8.880;2023-06-10T01:30:14;7.60;;;6.87;;
65035;SDS011;51603;49.300;8.880;2023-06-10T01:32:44;8.07;;;7.40;;
65035;SDS011;51603;49.300;8.880;2023-06-10T01:35:13;8.20;;;7.60;;
65035;SDS011;51603;49.300;8.880;2023-06-10T01:37:39;8.37;;;7.63;;
65035;SDS011;51603;49.300;8.880;2023-06-10T01:40:07;8.60;;;7.80;;
65035;SDS011;51603;49.300;8.880;2023-06-10T01:42:34;8.13;;;7.53;;
65035;SDS011;51603;49.300;8.880;2023-06-10T01:45:00;7.57;;;6.97;;
65035;SDS011;51603;49.300;8.880;2023-06-10T01:47:26;7.90;;;7.20;;
65035;SDS011;51603;49.300;8.880;2023-06-10T01:49:51;8.37;;;7.57;;
65035;SDS011;51603;49.300;8.880;2023-06-10T01:52:17;8.03;;;7.33;;
65035;SDS011;51603;49.300;8.880;2023-06-10T01:54:43;8.67;;;7.97;;
65035;SDS011;51603;49.300;8.880;2023-06-10T01:57:08;8.27;;;7.57;;
65035;SDS011;51603;49.300;8.880;2023-06-10T01:59:34;8.67;;;7.97;;
65035;SDS011;51603;49.300;8.880;2023-06-10T02:02:01;9.57;;;8.67;;
65035;SDS011;51603;49.300;8.880;2023-06-10T02:04:27;8.87;;;8.17;;
65035;SDS011;51603;49.300;8.880;2023-06-10T02:06:52;8.63;;;7.93;;
65035;SDS011;51603;49.300;8.880;2023-06-10T02:09:18;9.57;;;8.67;;
65035;SDS011;51603;49.300;8.880;2023-06-10T02:11:44;8.40;;;7.70;;
65035;SDS011;51603;49.300;8.880;2023-06-10T02:14:09;7.97;;;7.20;;
65035;SDS011;51603;49.300;8.880;2023-06-10T02:16:35;8.13;;;7.30;;
65035;SDS011;51603;49.300;8.880;2023-06-10T02:19:00;8.53;;;7.83;;
65035;SDS011;51603;49.300;8.880;2023-06-10T02:21:26;7.60;;;7.00;;
65035;SDS011;51603;49.300;8.880;2023-06-10T02:23:51;8.00;;;7.30;;
65035;SDS011;51603;49.300;8.880;2023-06-10T02:26:17;8.50;;;7.80;;
65035;SDS011;51603;49.300;8.880;2023-06-10T02:28:43;8.03;;;7.40;;
65035;SDS011;51603;49.300;8.880;2023-06-10T02:31:09;8.00;;;7.40;;
65035;SDS011;51603;49.300;8.880;2023-06-10T02:33:34;8.97;;;8.10;;
65035;SDS011;51603;49.300;8.880;2023-06-10T02:36:00;7.80;;;7.10;;
65035;SDS011;51603;49.300;8.880;2023-06-10T02:38:25;7.80;;;7.10;;
65035;SDS011;51603;49.300;8.880;2023-06-10T02:40:51;9.00;;;8.17;;
65035;SDS011;51603;49.300;8.880;2023-06-10T02:43:16;8.13;;;7.43;;
65035;SDS011;51603;49.300;8.880;2023-06-10T02:45:42;8.40;;;7.80;;
65035;SDS011;51603;49.300;8.880;2023-06-10T02:48:07;8.50;;;7.77;;
65035;SDS011;51603;49.300;8.880;2023-06-10T02:50:33;8.20;;;7.47;;
65035;SDS011;51603;49.300;8.880;2023-06-10T02:52:59;8.50;;;7.73;;
65035;SDS011;51603;49.300;8.880;2023-06-10T02:55:24;7.00;;;6.50;;
65035;SDS011;51603;49.300;8.880;2023-06-10T02:57:51;8.00;;;7.40;;
65035;SDS011;51603;49.300;8.880;2023-06-10T03:00:19;8.20;;;7.50;;
65035;SDS011;51603;49.300;8.880;2023-06-10T03:02:46;8.13;;;7.43;;
65035;SDS011;51603;49.300;8.880;2023-06-10T03:05:12;7.60;;;7.00;;
65035;SDS011;51603;49.300;8.880;2023-06-10T03:07:38;8.60;;;7.50;;
65035;SDS011;51603;49.300;8.880;2023-06-10T03:10:04;7.97;;;7.37;;
65035;SDS011;51603;49.300;8.880;2023-06-10T03:12:31;9.00;;;8.20;;
65035;SDS011;51603;49.300;8.880;2023-06-10T03:14:57;7.67;;;7.07;;
65035;SDS011;51603;49.300;8.880;2023-06-10T03:17:23;12.00;;;8.40;;
65035;SDS011;51603;49.300;8.880;2023-06-10T03:19:48;7.73;;;7.03;;
65035;SDS011;51603;49.300;8.880;2023-06-10T03:22:14;7.70;;;7.10;;
65035;SDS011;51603;49.300;8.880;2023-06-10T03:24:41;8.80;;;8.10;;
65035;SDS011;51603;49.300;8.880;2023-06-10T03:27:08;9.07;;;8.27;;
65035;SDS011;51603;49.300;8.880;2023-06-10T03:29:36;8.57;;;7.83;;
65035;SDS011;51603;49.300;8.880;2023-06-10T03:32:02;8.67;;;7.90;;
65035;SDS011;51603;49.300;8.880;2023-06-10T03:34:27;9.10;;;8.40;;
65035;SDS011;51603;49.300;8.880;2023-06-10T03:36:54;9.37;;;8.60;;
65035;SDS011;51603;49.300;8.880;2023-06-10T03:39:20;9.17;;;8.27;;
65035;SDS011;51603;49.300;8.880;2023-06-10T03:41:46;8.80;;;8.10;;
65035;SDS011;51603;49.300;8.880;2023-06-10T03:44:11;8.50;;;7.80;;
65035;SDS011;51603;49.300;8.880;2023-06-10T03:46:37;9.50;;;8.70;;
65035;SDS011;51603;49.300;8.880;2023-06-10T03:49:03;9.17;;;8.27;;
65035;SDS011;51603;49.300;8.880;2023-06-10T03:51:29;8.90;;;8.20;;
65035;SDS011;51603;49.300;8.880;2023-06-10T03:53:55;8.33;;;7.73;;
65035;SDS011;51603;49.300;8.880;2023-06-10T03:56:20;8.07;;;7.37;;
65035;SDS011;51603;49.300;8.880;2023-06-10T03:58:46;9.17;;;8.37;;
65035;SDS011;51603;49.300;8.880;2023-06-10T04:01:11;9.20;;;8.50;;
65035;SDS011;51603;49.300;8.880;2023-06-10T04:03:38;9.50;;;8.70;;
65035;SDS011;51603;49.300;8.880;2023-06-10T04:06:06;9.13;;;8.23;;
65035;SDS011;51603;49.300;8.880;2023-06-10T04:08:32;8.70;;;8.07;;
65035;SDS011;51603;49.300;8.880;2023-06-10T04:10:58;9.50;;;8.70;;
65035;SDS011;51603;49.300;8.880;2023-06-10T04:13:24;9.83;;;9.03;;
65035;SDS011;51603;49.300;8.880;2023-06-10T04:15:49;9.73;;;8.93;;
65035;SDS011;51603;49.300;8.880;2023-06-10T04:18:15;9.90;;;9.03;;
65035;SDS011;51603;49.300;8.880;2023-06-10T04:20:41;9.70;;;8.80;;
65035;SDS011;51603;49.300;8.880;2023-06-10T04:23:07;8.60;;;7.80;;
65035;SDS011;51603;49.300;8.880;2023-06-10T04:25:32;8.27;;;7.57;;
65035;SDS011;51603;49.300;8.880;2023-06-10T04:27:58;9.33;;;8.53;;
65035;SDS011;51603;49.300;8.880;2023-06-10T04:30:24;9.20;;;8.50;;
65035;SDS011;51603;49.300;8.880;2023-06-10T04:32:49;8.97;;;8.27;;
65035;SDS011;51603;49.300;8.880;2023-06-10T04:35:15;8.93;;;8.23;;
65035;SDS011;51603;49.300;8.880;2023-06-10T04:37:41;10.00;;;9.03;;
65035;SDS011;51603;49.300;8.880;2023-06-10T04:40:07;9.43;;;8.67;;
65035;SDS011;51603;49.300;8.880;2023-06-10T04:42:34;9.07;;;8.27;;
65035;SDS011;51603;49.300;8.880;2023-06-10T04:45:00;9.63;;;8.83;;
65035;SDS011;51603;49.300;8.880;2023-06-10T04:47:25;9.67;;;8.77;;
65035;SDS011;51603;49.300;8.880;2023-06-10T04:49:51;8.87;;;8.20;;
65035;SDS011;51603;49.300;8.880;2023-06-10T04:52:17;9.03;;;8.23;;
65035;SDS011;51603;49.300;8.880;2023-06-10T04:54:43;10.73;;;9.93;;
65035;SDS011;51603;49.300;8.880;2023-06-10T04:57:08;9.90;;;9.00;;
65035;SDS011;51603;49.300;8.880;2023-06-10T04:59:36;9.97;;;9.17;;
65035;SDS011;51603;49.300;8.880;2023-06-10T05:02:06;10.10;;;9.20;;
65035;SDS011;51603;49.300;8.880;2023-06-10T05:04:31;9.03;;;8.23;;
65035;SDS011;51603;49.300;8.880;2023-06-10T05:06:57;8.73;;;7.80;;
65035;SDS011;51603;49.300;8.880;2023-06-10T05:09:22;10.60;;;9.60;;
65035;SDS011;51603;49.300;8.880;2023-06-10T05:11:48;8.57;;;7.70;;
65035;SDS011;51603;49.300;8.880;2023-06-10T05:14:14;9.83;;;9.03;;
65035;SDS011;51603;49.300;8.880;2023-06-10T05:16:41;9.40;;;8.70;;
65035;SDS011;51603;49.300;8.880;2023-06-10T05:19:08;10.57;;;9.20;;
65035;SDS011;51603;49.300;8.880;2023-06-10T05:21:33;9.13;;;8.20;;
65035;SDS011;51603;49.300;8.880;2023-06-10T05:23:59;9.00;;;8.20;;
65035;SDS011;51603;49.300;8.880;2023-06-10T05:26:24;9.10;;;8.20;;
65035;SDS011;51603;49.300;8.880;2023-06-10T05:28:50;9.37;;;8.57;;
65035;SDS011;51603;49.300;8.880;2023-06-10T05:31:15;10.10;;;9.10;;
65035;SDS011;51603;49.300;8.880;2023-06-10T05:33:41;9.60;;;8.90;;
65035;SDS011;51603;49.300;8.880;2023-06-10T05:36:06;9.50;;;8.60;;
65035;SDS011;51603;49.300;8.880;2023-06-10T05:38:32;9.07;;;8.17;;
65035;SDS011;51603;49.300;8.880;2023-06-10T05:40:58;9.57;;;8.77;;
65035;SDS011;51603;49.300;8.880;2023-06-10T05:43:24;8.97;;;8.17;;
65035;SDS011;51603;49.300;8.880;2023-06-10T05:45:49;9.90;;;9.00;;
65035;SDS011;51603;49.300;8.880;2023-06-10T05:48:15;8.80;;;8.00;;
65035;SDS011;51603;49.300;8.880;2023-06-10T05:50:40;9.57;;;8.73;;
65035;SDS011;51603;49.300;8.880;2023-06-10T05:53:07;9.83;;;9.00;;
65035;SDS011;51603;49.300;8.880;2023-06-10T05:55:40;9.77;;;8.97;;
65035;SDS011;51603;49.300;8.880;2023-06-10T05:58:09;8.80;;;8.00;;
65035;SDS011;51603;49.300;8.880;2023-06-10T06:00:35;8.90;;;8.20;;
65035;SDS011;51603;49.300;8.880;2023-06-10T06:03:00;8.90;;;8.10;;
65035;SDS011;51603;49.300;8.880;2023-06-10T06:05:26;8.83;;;8.13;;
65035;SDS011;51603;49.300;8.880;2023-06-10T06:07:51;9.47;;;8.57;;
65035;SDS011;51603;49.300;8.880;2023-06-10T06:10:17;10.10;;;8.20;;
65035;SDS011;51603;49.300;8.880;2023-06-10T06:12:43;8.43;;;7.63;;
65035;SDS011;51603;49.300;8.880;2023-06-10T06:15:09;8.80;;;8.00;;
65035;SDS011;51603;49.300;8.880;2023-06-10T06:17:35;8.80;;;8.00;;
65035;SDS011;51603;49.300;8.880;2023-06-10T06:20:02;8.77;;;8.07;;
65035;SDS011;51603;49.300;8.880;2023-06-10T06:22:28;8.30;;;7.43;;
65035;SDS011;51603;49.300;8.880;2023-06-10T06:24:53;7.93;;;7.43;;
65035;SDS011;51603;49.300;8.880;2023-06-10T06:27:19;8.23;;;7.63;;
65035;SDS011;51603;49.300;8.880;2023-06-10T06:29:46;8.10;;;7.40;;
65035;SDS011;51603;49.300;8.880;2023-06-10T06:32:11;8.63;;;7.93;;
65035;SDS011;51603;49.300;8.880;2023-06-10T06:34:37;8.17;;;7.47;;
65035;SDS011;51603;49.300;8.880;2023-06-10T06:37:03;9.13;;;8.33;;
65035;SDS011;51603;49.300;8.880;2023-06-10T06:39:28;9.10;;;8.40;;
65035;SDS011;51603;49.300;8.880;2023-06-10T06:41:54;8.87;;;7.33;;
65035;SDS011;51603;49.300;8.880;2023-06-10T06:44:19;8.90;;;8.00;;
65035;SDS011;51603;49.300;8.880;2023-06-10T06:46:45;8.60;;;7.83;;
65035;SDS011;51603;49.300;8.880;2023-06-10T06:49:11;7.83;;;7.13;;
65035;SDS011;51603;49.300;8.880;2023-06-10T06:51:36;8.57;;;7.87;;
65035;SDS011;51603;49.300;8.880;2023-06-10T06:54:02;8.47;;;7.67;;
65035;SDS011;51603;49.300;8.880;2023-06-10T06:56:28;9.20;;;8.10;;
65035;SDS011;51603;49.300;8.880;2023-06-10T06:58:53;8.10;;;7.30;;
65035;SDS011;51603;49.300;8.880;2023-06-10T07:01:19;8.77;;;8.03;;
65035;SDS011;51603;49.300;8.880;2023-06-10T07:03:45;7.13;;;6.53;;
65035;SDS011;51603;49.300;8.880;2023-06-10T07:06:11;7.80;;;7.20;;
65035;SDS011;51603;49.300;8.880;2023-06-10T07:08:37;8.50;;;7.60;;
65035;SDS011;51603;49.300;8.880;2023-06-10T07:11:03;9.40;;;7.53;;
65035;SDS011;51603;49.300;8.880;2023-06-10T07:13:28;7.93;;;7.23;;
65035;SDS011;51603;49.300;8.880;2023-06-10T07:15:54;8.23;;;7.53;;
65035;SDS011;51603;49.300;8.880;2023-06-10T07:18:19;7.67;;;6.97;;
65035;SDS011;51603;49.300;8.880;2023-06-10T07:20:45;7.20;;;6.70;;
65035;SDS011;51603;49.300;8.880;2023-06-10T07:23:10;8.13;;;7.43;;
65035;SDS011;51603;49.300;8.880;2023-06-10T07:25:36;8.60;;;7.90;;
65035;SDS011;51603;49.300;8.880;2023-06-10T07:28:02;8.20;;;7.50;;
65035;SDS011;51603;49.300;8.880;2023-06-10T07:30:28;8.70;;;7.90;;
65035;SDS011;51603;49.300;8.880;2023-06-10T07:32:53;7.80;;;7.00;;
65035;SDS011;51603;49.300;8.880;2023-06-10T07:35:19;7.13;;;6.40;;
65035;SDS011;51603;49.300;8.880;2023-06-10T07:37:45;7.70;;;6.93;;
65035;SDS011;51603;49.300;8.880;2023-06-10T07:40:11;6.60;;;6.00;;
65035;SDS011;51603;49.300;8.880;2023-06-10T07:42:36;7.77;;;7.17;;
65035;SDS011;51603;49.300;8.880;2023-06-10T07:45:05;6.83;;;6.33;;
65035;SDS011;51603;49.300;8.880;2023-06-10T07:47:32;7.03;;;6.43;;
65035;SDS011;51603;49.300;8.880;2023-06-10T07:49:58;7.00;;;6.40;;
65035;SDS011;51603;49.300;8.880;2023-06-10T07:52:24;7.00;;;6.40;;
65035;SDS011;51603;49.300;8.880;2023-06-10T07:54:50;6.80;;;6.20;;
65035;SDS011;51603;49.300;8.880;2023-06-10T07:57:16;9.17;;;6.97;;
65035;SDS011;51603;49.300;8.880;2023-06-10T07:59:42;6.10;;;5.60;;
65035;SDS011;51603;49.300;8.880;2023-06-10T08:02:09;9.00;;;6.53;;
65035;SDS011;51603;49.300;8.880;2023-06-10T08:04:35;6.90;;;6.20;;
65035;SDS011;51603;49.300;8.880;2023-06-10T08:07:00;6.87;;;6.27;;
65035;SDS011;51603;49.300;8.880;2023-06-10T08:09:27;6.90;;;6.30;;
65035;SDS011;51603;49.300;8.880;2023-06-10T08:11:52;6.60;;;6.00;;
65035;SDS011;51603;49.300;8.880;2023-06-10T08:14:18;7.00;;;6.40;;
65035;SDS011;51603;49.300;8.880;2023-06-10T08:16:44;7.33;;;6.40;;
65035;SDS011;51603;49.300;8.880;2023-06-10T08:19:10;6.27;;;5.77;;
65035;SDS011;51603;49.300;8.880;2023-06-10T08:21:35;7.07;;;6.47;;
65035;SDS011;51603;49.300;8.880;2023-06-10T08:24:05;7.00;;;6.40;;
65035;SDS011;51603;49.300;8.880;2023-06-10T08:26:31;6.73;;;6.03;;
65035;SDS011;51603;49.300;8.880;2023-06-10T08:28:57;6.27;;;5.77;;
65035;SDS011;51603;49.300;8.880;2023-06-10T08:31:22;6.03;;;5.43;;
65035;SDS011;51603;49.300;8.880;2023-06-10T08:33:48;8.20;;;5.70;;
65035;SDS011;51603;49.300;8.880;2023-06-10T08:36:15;5.87;;;5.30;;
65035;SDS011;51603;49.300;8.880;2023-06-10T08:38:40;6.43;;;5.80;;
65035;SDS011;51603;49.300;8.880;2023-06-10T08:41:06;6.40;;;5.80;;
65035;SDS011;51603;49.300;8.880;2023-06-10T08:43:40;6.40;;;5.80;;
65035;SDS011;51603;49.300;8.880;2023-06-10T08:46:10;6.97;;;6.27;;
65035;SDS011;51603;49.300;8.880;2023-06-10T08:48:39;8.03;;;6.20;;
65035;SDS011;51603;49.300;8.880;2023-06-10T08:51:08;6.40;;;5.80;;
65035;SDS011;51603;49.300;8.880;2023-06-10T08:53:36;7.27;;;6.33;;
65035;SDS011;51603;49.300;8.880;2023-06-10T08:56:06;7.10;;;6.40;;
65035;SDS011;51603;49.300;8.880;2023-06-10T08:58:34;6.03;;;5.43;;
65035;SDS011;51603;49.300;8.880;2023-06-10T09:01:05;6.97;;;6.27;;
65035;SDS011;51603;49.300;8.880;2023-06-10T09:03:30;7.33;;;6.10;;
65035;SDS011;51603;49.300;8.880;2023-06-10T09:05:56;7.33;;;6.00;;
65035;SDS011;51603;49.300;8.880;2023-06-10T09:08:22;7.97;;;6.07;;
65035;SDS011;51603;49.300;8.880;2023-06-10T09:10:48;7.80;;;5.70;;
65035;SDS011;51603;49.300;8.880;2023-06-10T09:13:14;8.67;;;6.97;;
65035;SDS011;51603;49.300;8.880;2023-06-10T09:15:40;6.70;;;6.00;;
65035;SDS011;51603;49.300;8.880;2023-06-10T09:18:06;7.53;;;5.57;;
65035;SDS011;51603;49.300;8.880;2023-06-10T09:20:32;6.10;;;5.13;;
65035;SDS011;51603;49.300;8.880;2023-06-10T09:22:59;7.37;;;5.63;;
65035;SDS011;51603;49.300;8.880;2023-06-10T09:25:34;7.40;;;6.40;;
65035;SDS011;51603;49.300;8.880;2023-06-10T09:28:02;7.50;;;5.47;;
65035;SDS011;51603;49.300;8.880;2023-06-10T09:32:55;7.20;;;5.57;;
65035;SDS011;51603;49.300;8.880;2023-06-10T09:35:25;6.50;;;5.40;;
65035;SDS011;51603;49.300;8.880;2023-06-10T09:37:56;6.67;;;5.17;;
65035;SDS011;51603;49.300;8.880;2023-06-10T09:40:23;7.03;;;5.67;;
65035;SDS011;51603;49.300;8.880;2023-06-10T09:42:52;7.20;;;5.63;;
65035;SDS011;51603;49.300;8.880;2023-06-10T09:45:20;7.07;;;5.63;;
65035;SDS011;51603;49.300;8.880;2023-06-10T09:47:46;5.73;;;5.23;;
65035;SDS011;51603;49.300;8.880;2023-06-10T09:50:12;6.23;;;5.17;;
65035;SDS011;51603;49.300;8.880;2023-06-10T09:52:38;6.17;;;5.57;;
65035;SDS011;51603;49.300;8.880;2023-06-10T09:55:04;6.50;;;5.57;;
65035;SDS011;51603;49.300;8.880;2023-06-10T09:57:33;6.27;;;5.37;;
65035;SDS011;51603;49.300;8.880;2023-06-10T10:00:04;6.30;;;5.70;;
65035;SDS011;51603;49.300;8.880;2023-06-10T10:02:43;5.70;;;5.20;;
65035;SDS011;51603;49.300;8.880;2023-06-10T10:05:16;6.17;;;5.33;;
65035;SDS011;51603;49.300;8.880;2023-06-10T10:07:43;6.47;;;5.20;;
65035;SDS011;51603;49.300;8.880;2023-06-10T10:10:10;6.13;;;5.53;;
65035;SDS011;51603;49.300;8.880;2023-06-10T10:12:36;5.70;;;5.20;;
65035;SDS011;51603;49.300;8.880;2023-06-10T10:15:03;5.67;;;5.17;;
65035;SDS011;51603;49.300;8.880;2023-06-10T10:17:37;5.93;;;5.37;;
65035;SDS011;51603;49.300;8.880;2023-06-10T10:20:45;5.50;;;5.00;;
65035;SDS011;51603;49.300;8.880;2023-06-10T10:23:16;5.10;;;4.60;;
65035;SDS011;51603;49.300;8.880;2023-06-10T10:25:50;5.70;;;5.20;;
65035;SDS011;51603;49.300;8.880;2023-06-10T10:28:18;6.03;;;5.43;;
65035;SDS011;51603;49.300;8.880;2023-06-10T10:30:47;5.17;;;4.60;;
65035;SDS011;51603;49.300;8.880;2023-06-10T10:33:18;4.80;;;4.27;;
65035;SDS011;51603;49.300;8.880;2023-06-10T10:35:48;5.13;;;4.63;;
65035;SDS011;51603;49.300;8.880;2023-06-10T10:38:15;6.37;;;4.70;;
65035;SDS011;51603;49.300;8.880;2023-06-10T10:40:40;5.67;;;5.10;;
65035;SDS011;51603;49.300;8.880;2023-06-10T10:43:07;5.67;;;5.20;;
65035;SDS011;51603;49.300;8.880;2023-06-10T10:45:33;6.70;;;5.57;;
65035;SDS011;51603;49.300;8.880;2023-06-10T10:48:01;5.20;;;4.67;;
65035;SDS011;51603;49.300;8.880;2023-06-10T10:50:33;5.20;;;4.70;;
65035;SDS011;51603;49.300;8.880;2023-06-10T10:53:00;5.50;;;4.50;;
65035;SDS011;51603;49.300;8.880;2023-06-10T10:55:27;5.30;;;4.90;;
65035;SDS011;51603;49.300;8.880;2023-06-10T10:58:02;6.30;;;5.00;;
65035;SDS011;51603;49.300;8.880;2023-06-10T11:00:32;6.30;;;5.70;;
65035;SDS011;51603;49.300;8.880;2023-06-10T11:03:13;5.37;;;4.80;;
65035;SDS011;51603;49.300;8.880;2023-06-10T11:05:40;5.33;;;4.93;;
65035;SDS011;51603;49.300;8.880;2023-06-10T11:08:13;4.97;;;4.57;;
65035;SDS011;51603;49.300;8.880;2023-06-10T11:10:40;5.27;;;4.77;;
65035;SDS011;51603;49.300;8.880;2023-06-10T11:13:26;4.97;;;4.47;;
65035;SDS011;51603;49.300;8.880;2023-06-10T11:15:53;5.20;;;4.70;;
65035;SDS011;51603;49.300;8.880;2023-06-10T11:18:23;5.07;;;4.57;;
65035;SDS011;51603;49.300;8.880;2023-06-10T11:26:09;4.37;;;3.83;;
65035;SDS011;51603;49.300;8.880;2023-06-10T11:28:38;6.10;;;3.70;;
65035;SDS011;51603;49.300;8.880;2023-06-10T11:31:05;3.57;;;3.27;;
65035;SDS011;51603;49.300;8.880;2023-06-10T11:33:31;3.80;;;3.50;;
65035;SDS011;51603;49.300;8.880;2023-06-10T11:35:57;5.00;;;3.90;;
65035;SDS011;51603;49.300;8.880;2023-06-10T11:38:23;4.50;;;4.10;;
65035;SDS011;51603;49.300;8.880;2023-06-10T11:40:49;4.80;;;4.00;;
65035;SDS011;51603;49.300;8.880;2023-06-10T11:43:19;3.30;;;3.00;;
65035;SDS011;51603;49.300;8.880;2023-06-10T11:45:45;4.90;;;4.50;;
65035;SDS011;51603;49.300;8.880;2023-06-10T11:48:12;4.07;;;3.77;;
65035;SDS011;51603;49.300;8.880;2023-06-10T11:50:37;4.07;;;3.73;;
65035;SDS011;51603;49.300;8.880;2023-06-10T11:53:03;5.93;;;3.20;;
65035;SDS011;51603;49.300;8.880;2023-06-10T11:55:42;5.63;;;4.10;;
65035;SDS011;51603;49.300;8.880;2023-06-10T11:58:21;4.73;;;4.03;;
65035;SDS011;51603;49.300;8.880;2023-06-10T12:03:14;4.77;;;4.37;;
65035;SDS011;51603;49.300;8.880;2023-06-10T12:05:40;5.13;;;3.97;;
65035;SDS011;51603;49.300;8.880;2023-06-10T12:08:11;4.87;;;4.03;;
65035;SDS011;51603;49.300;8.880;2023-06-10T12:10:41;4.40;;;4.00;;
65035;SDS011;51603;49.300;8.880;2023-06-10T12:13:07;4.87;;;4.50;;
65035;SDS011;51603;49.300;8.880;2023-06-10T12:15:34;4.80;;;4.40;;
65035;SDS011;51603;49.300;8.880;2023-06-10T12:17:59;4.43;;;4.03;;
65035;SDS011;51603;49.300;8.880;2023-06-10T12:20:26;8.30;;;3.87;;
65035;SDS011;51603;49.300;8.880;2023-06-10T12:22:53;4.57;;;4.07;;
65035;SDS011;51603;49.300;8.880;2023-06-10T12:25:23;4.73;;;4.33;;
65035;SDS011;51603;49.300;8.880;2023-06-10T12:27:54;4.27;;;3.93;;
65035;SDS011;51603;49.300;8.880;2023-06-10T12:30:22;4.57;;;4.17;;
65035;SDS011;51603;49.300;8.880;2023-06-10T12:32:49;3.80;;;3.50;;
65035;SDS011;51603;49.300;8.880;2023-06-10T12:35:22;4.23;;;3.93;;
65035;SDS011;51603;49.300;8.880;2023-06-10T12:40:29;4.00;;;3.53;;
65035;SDS011;51603;49.300;8.880;2023-06-10T12:43:00;4.63;;;4.23;;
65035;SDS011;51603;49.300;8.880;2023-06-10T12:45:27;5.07;;;4.67;;
65035;SDS011;51603;49.300;8.880;2023-06-10T12:50:53;4.47;;;4.07;;
65035;SDS011;51603;49.300;8.880;2023-06-10T12:53:20;3.73;;;3.43;;
65035;SDS011;51603;49.300;8.880;2023-06-10T12:55:48;4.90;;;3.70;;
65035;SDS011;51603;49.300;8.880;2023-06-10T12:58:14;4.30;;;3.90;;
65035;SDS011;51603;49.300;8.880;2023-06-10T13:00:40;3.73;;;3.07;;
65035;SDS011;51603;49.300;8.880;2023-06-10T13:03:08;4.07;;;3.60;;
65035;SDS011;51603;49.300;8.880;2023-06-10T13:05:35;3.73;;;3.43;;
65035;SDS011;51603;49.300;8.880;2023-06-10T13:08:03;3.57;;;3.27;;
65035;SDS011;51603;49.300;8.880;2023-06-10T13:10:32;3.90;;;3.60;;
65035;SDS011;51603;49.300;8.880;2023-06-10T13:12:59;5.43;;;3.80;;
65035;SDS011;51603;49.300;8.880;2023-06-10T13:15:26;5.77;;;3.37;;
65035;SDS011;51603;49.300;8.880;2023-06-10T13:17:51;3.93;;;3.53;;
65035;SDS011;51603;49.300;8.880;2023-06-10T13:20:17;4.13;;;3.70;;
65035;SDS011;51603;49.300;8.880;2023-06-10T13:22:44;4.17;;;3.77;;
65035;SDS011;51603;49.300;8.880;2023-06-10T13:25:10;4.10;;;3.77;;
65035;SDS011;51603;49.300;8.880;2023-06-10T13:27:36;5.07;;;3.70;;
65035;SDS011;51603;49.300;8.880;2023-06-10T13:30:08;3.90;;;3.50;;
65035;SDS011;51603;49.300;8.880;2023-06-10T13:32:35;4.10;;;3.80;;
65035;SDS011;51603;49.300;8.880;2023-06-10T13:35:01;4.20;;;3.67;;
65035;SDS011;51603;49.300;8.880;2023-06-10T13:37:26;6.63;;;4.03;;
65035;SDS011;51603;49.300;8.880;2023-06-10T13:39:52;4.10;;;3.80;;
65035;SDS011;51603;49.300;8.880;2023-06-10T13:42:18;3.47;;;3.17;;
65035;SDS011;51603;49.300;8.880;2023-06-10T13:44:44;4.30;;;3.90;;
65035;SDS011;51603;49.300;8.880;2023-06-10T13:47:09;4.30;;;3.90;;
65035;SDS011;51603;49.300;8.880;2023-06-10T13:49:35;4.20;;;3.50;;
65035;SDS011;51603;49.300;8.880;2023-06-10T13:52:01;4.30;;;3.47;;
65035;SDS011;51603;49.300;8.880;2023-06-10T13:54:27;4.17;;;3.83;;
65035;SDS011;51603;49.300;8.880;2023-06-10T13:56:53;3.80;;;3.50;;
65035;SDS011;51603;49.300;8.880;2023-06-10T13:59:19;4.63;;;3.97;;
65035;SDS011;51603;49.300;8.880;2023-06-10T14:01:45;4.07;;;3.77;;
65035;SDS011;51603;49.300;8.880;2023-06-10T14:04:11;4.57;;;3.73;;
65035;SDS011;51603;49.300;8.880;2023-06-10T14:06:36;4.30;;;4.00;;
65035;SDS011;51603;49.300;8.880;2023-06-10T14:09:02;4.63;;;4.27;;
65035;SDS011;51603;49.300;8.880;2023-06-10T14:11:28;3.90;;;3.50;;
65035;SDS011;51603;49.300;8.880;2023-06-10T14:13:54;3.63;;;3.33;;
65035;SDS011;51603;49.300;8.880;2023-06-10T14:16:22;4.10;;;3.70;;
65035;SDS011;51603;49.300;8.880;2023-06-10T14:18:48;4.33;;;3.93;;
65035;SDS011;51603;49.300;8.880;2023-06-10T14:21:15;4.83;;;3.97;;
65035;SDS011;51603;49.300;8.880;2023-06-10T14:23:41;3.50;;;3.20;;
65035;SDS011;51603;49.300;8.880;2023-06-10T14:26:08;4.20;;;3.80;;
65035;SDS011;51603;49.300;8.880;2023-06-10T14:28:34;5.00;;;3.90;;
65035;SDS011;51603;49.300;8.880;2023-06-10T14:30:59;5.10;;;4.60;;
65035;SDS011;51603;49.300;8.880;2023-06-10T14:33:25;4.70;;;4.27;;
65035;SDS011;51603;49.300;8.880;2023-06-10T14:35:51;4.17;;;3.70;;
65035;SDS011;51603;49.300;8.880;2023-06-10T14:38:16;4.10;;;3.70;;
65035;SDS011;51603;49.300;8.880;2023-06-10T14:40:42;4.23;;;3.83;;
65035;SDS011;51603;49.300;8.880;2023-06-10T14:43:07;5.37;;;4.87;;
65035;SDS011;51603;49.300;8.880;2023-06-10T14:45:35;4.50;;;4.10;;
65035;SDS011;51603;49.300;8.880;2023-06-10T14:48:02;5.10;;;4.70;;
65035;SDS011;51603;49.300;8.880;2023-06-10T14:50:28;6.73;;;4.70;;
65035;SDS011;51603;49.300;8.880;2023-06-10T14:52:54;4.50;;;4.10;;
65035;SDS011;51603;49.300;8.880;2023-06-10T14:55:19;5.37;;;4.10;;
65035;SDS011;51603;49.300;8.880;2023-06-10T14:57:45;4.43;;;4.03;;
65035;SDS011;51603;49.300;8.880;2023-06-10T15:00:11;4.60;;;4.17;;
65035;SDS011;51603;49.300;8.880;2023-06-10T15:02:40;5.30;;;4.90;;
65035;SDS011;51603;49.300;8.880;2023-06-10T15:05:05;5.33;;;4.90;;
65035;SDS011;51603;49.300;8.880;2023-06-10T15:07:31;12.20;;;5.80;;